createdAt,value
2018-06-21T00:00:08.230Z,6.40
2018-06-21T00:02:37.773Z,7.10
2018-06-21T00:05:07.032Z,5.97
2018-06-21T00:07:36.435Z,6.07
2018-06-21T00:10:05.770Z,6.37
2018-06-21T00:12:35.163Z,7.13
2018-06-21T00:15:04.845Z,6.73
2018-06-21T00:17:34.566Z,7.20
2018-06-21T00:20:04.177Z,6.70
2018-06-21T00:22:33.465Z,6.90
2018-06-21T00:25:03.069Z,9.43
2018-06-21T00:27:32.267Z,6.93
2018-06-21T00:30:01.676Z,6.90
2018-06-21T00:32:30.972Z,7.40
2018-06-21T00:35:00.593Z,7.30
2018-06-21T00:37:29.877Z,6.87
2018-06-21T00:39:59.382Z,7.10
2018-06-21T00:42:29.212Z,6.87
2018-06-21T00:44:58.494Z,8.20
2018-06-21T00:47:28.106Z,7.97
2018-06-21T00:49:57.513Z,7.07
2018-06-21T00:52:26.787Z,7.47
2018-06-21T00:54:56.000Z,8.17
2018-06-21T00:57:25.513Z,8.77
2018-06-21T00:59:55.131Z,8.23
2018-06-21T01:02:24.517Z,7.47
2018-06-21T01:04:54.134Z,6.70
2018-06-21T01:07:23.543Z,8.73
2018-06-21T01:09:53.138Z,7.47
2018-06-21T01:12:26.331Z,7.60
2018-06-21T01:14:56.643Z,7.27
2018-06-21T01:17:26.260Z,7.67
2018-06-21T01:19:56.473Z,6.77
2018-06-21T01:22:26.384Z,7.30
2018-06-21T01:24:56.524Z,7.40
2018-06-21T01:27:26.121Z,7.43
2018-06-21T01:29:56.231Z,8.00
2018-06-21T01:32:26.145Z,7.90
2018-06-21T01:34:55.770Z,8.37
2018-06-21T01:37:25.665Z,8.53
2018-06-21T01:39:55.283Z,8.07
2018-06-21T01:42:24.681Z,7.47
2018-06-21T01:44:54.399Z,7.67
2018-06-21T01:47:24.094Z,8.07
2018-06-21T01:49:53.697Z,7.70
2018-06-21T01:52:22.998Z,7.47
2018-06-21T01:54:52.707Z,7.87
2018-06-21T01:57:22.315Z,8.10
2018-06-21T01:59:52.245Z,7.40
2018-06-21T02:02:21.953Z,7.87
2018-06-21T02:04:51.240Z,7.77
2018-06-21T02:07:20.538Z,7.90
2018-06-21T02:09:50.052Z,8.07
2018-06-21T02:12:19.241Z,7.77
2018-06-21T02:14:48.772Z,8.07
2018-06-21T02:17:18.252Z,9.30
2018-06-21T02:19:47.984Z,7.80
2018-06-21T02:22:17.465Z,8.10
2018-06-21T02:24:46.969Z,8.60
2018-06-21T02:27:16.776Z,8.60
2018-06-21T02:29:46.080Z,8.80
2018-06-21T02:32:15.280Z,7.07
2018-06-21T02:34:44.576Z,8.57
2018-06-21T02:37:13.893Z,8.60
2018-06-21T02:39:43.893Z,7.77
2018-06-21T02:42:13.802Z,8.43
2018-06-21T02:44:43.653Z,8.87
2018-06-21T02:47:13.137Z,8.40
2018-06-21T02:49:42.735Z,9.10
2018-06-21T02:52:12.038Z,10.07
2018-06-21T02:54:41.344Z,8.30
2018-06-21T02:57:10.733Z,9.63
2018-06-21T02:59:40.234Z,9.47
2018-06-21T03:02:09.847Z,9.00
2018-06-21T03:04:39.252Z,10.53
2018-06-21T03:07:08.752Z,8.63
2018-06-21T03:09:38.071Z,8.93
2018-06-21T03:12:11.752Z,11.00
2018-06-21T03:14:41.052Z,9.60
2018-06-21T03:17:10.459Z,9.17
2018-06-21T03:19:39.770Z,10.63
2018-06-21T03:22:09.111Z,10.20
2018-06-21T03:24:38.571Z,9.47
2018-06-21T03:27:07.772Z,9.20
2018-06-21T03:29:37.292Z,9.20
2018-06-21T03:32:06.984Z,9.50
2018-06-21T03:34:36.268Z,8.77
2018-06-21T03:37:05.470Z,9.60
2018-06-21T03:39:34.891Z,10.37
2018-06-21T03:42:04.769Z,9.63
2018-06-21T03:44:34.287Z,9.77
2018-06-21T03:47:04.005Z,9.47
2018-06-21T03:49:33.508Z,11.13
2018-06-21T03:52:03.007Z,9.27
2018-06-21T03:54:32.609Z,9.93
2018-06-21T03:57:02.332Z,10.10
2018-06-21T03:59:32.131Z,9.47
2018-06-21T04:02:01.553Z,9.57
2018-06-21T04:04:30.834Z,8.83
2018-06-21T04:07:00.138Z,11.50
2018-06-21T04:09:29.551Z,10.63
2018-06-21T04:11:59.253Z,9.83
2018-06-21T04:14:28.972Z,12.03
2018-06-21T04:16:58.691Z,9.47
2018-06-21T04:19:28.373Z,9.43
2018-06-21T04:21:58.307Z,10.87
2018-06-21T04:24:27.895Z,10.13
2018-06-21T04:26:57.802Z,9.93
2018-06-21T04:29:27.107Z,10.10
2018-06-21T04:31:56.617Z,9.83
2018-06-21T04:34:26.219Z,10.70
2018-06-21T04:36:56.031Z,10.10
2018-06-21T04:39:25.434Z,10.87
2018-06-21T04:41:54.945Z,10.73
2018-06-21T04:44:24.571Z,9.13
2018-06-21T04:46:54.568Z,10.37
2018-06-21T04:49:24.682Z,12.43
2018-06-21T04:51:54.387Z,9.30
2018-06-21T04:54:24.099Z,10.03
2018-06-21T04:56:53.610Z,8.77
2018-06-21T04:59:23.939Z,8.37
2018-06-21T05:01:53.954Z,9.23
2018-06-21T05:04:23.757Z,8.40
2018-06-21T05:06:53.976Z,8.30
2018-06-21T05:09:23.898Z,8.80
2018-06-21T05:11:53.608Z,7.90
2018-06-21T05:14:23.207Z,8.80
2018-06-21T05:16:53.018Z,8.37
2018-06-21T05:19:22.633Z,8.33
2018-06-21T05:21:52.559Z,7.37
2018-06-21T05:24:22.248Z,7.27
2018-06-21T05:26:51.846Z,7.20
2018-06-21T05:29:21.774Z,6.87
2018-06-21T05:31:51.584Z,7.57
2018-06-21T05:34:21.404Z,8.27
2018-06-21T05:36:51.324Z,7.43
2018-06-21T05:39:21.427Z,6.53
2018-06-21T05:41:50.776Z,6.43
2018-06-21T05:44:20.137Z,6.80
2018-06-21T05:46:49.843Z,6.17
2018-06-21T05:49:19.238Z,6.67
2018-06-21T05:51:48.953Z,6.27
2018-06-21T05:54:18.567Z,6.53
2018-06-21T05:56:48.704Z,7.17
2018-06-21T05:59:18.303Z,6.80
2018-06-21T06:01:47.897Z,6.60
2018-06-21T06:04:17.495Z,6.87
2018-06-21T06:06:47.103Z,6.13
2018-06-21T06:09:16.612Z,5.80
2018-06-21T06:11:46.784Z,6.10
2018-06-21T06:14:16.334Z,7.57
2018-06-21T06:16:46.845Z,6.03
2018-06-21T06:19:16.888Z,5.50
2018-06-21T06:21:46.903Z,6.10
2018-06-21T06:24:17.118Z,5.87
2018-06-21T06:26:46.927Z,6.10
2018-06-21T06:29:16.841Z,5.90
2018-06-21T06:31:47.269Z,6.40
2018-06-21T06:34:20.686Z,5.43
2018-06-21T06:36:51.398Z,5.87
2018-06-21T06:39:22.233Z,7.00
2018-06-21T06:41:52.658Z,5.13
2018-06-21T06:44:22.573Z,5.37
2018-06-21T06:46:52.391Z,5.40
2018-06-21T06:49:22.615Z,5.63
2018-06-21T06:51:52.419Z,5.60
2018-06-21T06:54:22.698Z,5.60
2018-06-21T06:56:52.250Z,5.07
2018-06-21T06:59:21.959Z,7.57
2018-06-21T07:01:51.254Z,5.53
2018-06-21T07:04:23.114Z,6.33
2018-06-21T07:06:52.931Z,5.60
2018-06-21T07:09:23.156Z,5.30
2018-06-21T07:11:52.754Z,4.77
2018-06-21T07:14:22.741Z,5.00
2018-06-21T07:16:52.273Z,6.37
2018-06-21T07:19:21.773Z,5.73
2018-06-21T07:21:51.490Z,4.63
2018-06-21T07:24:20.914Z,4.73
2018-06-21T07:26:50.499Z,4.60
2018-06-21T07:29:20.224Z,4.50
2018-06-21T07:31:52.583Z,5.13
2018-06-21T07:34:23.213Z,4.83
2018-06-21T07:36:53.347Z,5.20
2018-06-21T07:39:24.680Z,4.40
2018-06-21T07:41:55.005Z,4.03
2018-06-21T07:44:25.533Z,4.77
2018-06-21T07:46:55.933Z,5.20
2018-06-21T07:49:26.615Z,4.63
2018-06-21T07:51:56.913Z,3.80
2018-06-21T07:54:26.623Z,4.33
2018-06-21T07:56:56.634Z,3.87
2018-06-21T07:59:26.842Z,4.10
2018-06-21T08:01:57.590Z,4.17
2018-06-21T08:04:28.327Z,4.23
2018-06-21T08:06:58.235Z,4.20
2018-06-21T08:09:28.455Z,3.77
2018-06-21T08:11:58.776Z,4.93
2018-06-21T08:14:28.703Z,6.97
2018-06-21T08:16:59.223Z,3.90
2018-06-21T08:19:29.653Z,4.93
2018-06-21T08:22:00.178Z,4.00
2018-06-21T08:24:29.888Z,3.33
2018-06-21T08:27:00.015Z,4.83
2018-06-21T08:29:29.826Z,5.97
2018-06-21T08:32:00.044Z,3.87
2018-06-21T08:34:30.166Z,3.80
2018-06-21T08:36:59.870Z,5.10
2018-06-21T08:39:29.274Z,3.37
2018-06-21T08:41:58.466Z,3.50
2018-06-21T08:44:28.488Z,4.20
2018-06-21T08:46:59.217Z,3.63
2018-06-21T08:49:29.837Z,4.73
2018-06-21T08:51:59.778Z,4.40
2018-06-21T08:54:29.981Z,3.30
2018-06-21T08:57:00.308Z,3.70
2018-06-21T08:59:31.154Z,6.03
2018-06-21T09:02:08.438Z,3.43
2018-06-21T09:04:38.545Z,3.43
2018-06-21T09:07:13.273Z,3.83
2018-06-21T09:09:42.937Z,3.73
2018-06-21T09:12:12.698Z,4.33
2018-06-21T09:14:42.403Z,4.47
2018-06-21T09:17:12.017Z,3.13
2018-06-21T09:19:41.927Z,3.07
2018-06-21T09:22:12.867Z,3.03
2018-06-21T09:24:44.524Z,3.43
2018-06-21T09:27:15.463Z,2.60
2018-06-21T09:29:46.405Z,3.83
2018-06-21T09:32:16.614Z,5.80
2018-06-21T09:34:46.220Z,2.90
2018-06-21T09:37:16.340Z,3.20
2018-06-21T09:39:50.249Z,2.77
2018-06-21T09:42:24.061Z,4.87
2018-06-21T09:44:58.111Z,3.50
2018-06-21T09:47:31.869Z,4.87
2018-06-21T09:50:03.848Z,3.67
2018-06-21T09:52:33.556Z,2.90
2018-06-21T09:55:03.454Z,2.43
2018-06-21T09:57:33.162Z,3.47
2018-06-21T10:00:02.904Z,2.80
2018-06-21T10:02:33.104Z,5.10
2018-06-21T10:05:03.110Z,4.40
2018-06-21T10:07:34.153Z,4.43
2018-06-21T10:10:04.281Z,5.43
2018-06-21T10:12:34.098Z,3.30
2018-06-21T10:15:08.194Z,2.53
2018-06-21T10:17:37.787Z,3.70
2018-06-21T10:20:07.517Z,3.23
2018-06-21T10:22:37.829Z,3.53
2018-06-21T10:25:08.567Z,4.50
2018-06-21T10:27:42.173Z,3.27
2018-06-21T10:30:12.084Z,2.83
2018-06-21T10:32:41.896Z,2.57
2018-06-21T10:35:13.153Z,4.13
2018-06-21T10:37:43.169Z,2.87
2018-06-21T10:40:13.295Z,2.63
2018-06-21T10:42:42.778Z,3.00
2018-06-21T10:45:12.395Z,4.07
2018-06-21T10:47:42.413Z,2.97
2018-06-21T10:50:12.222Z,5.23
2018-06-21T10:52:42.544Z,3.40
2018-06-21T10:55:12.856Z,3.27
2018-06-21T10:57:43.394Z,8.83
2018-06-21T11:00:16.894Z,2.87
2018-06-21T11:02:47.324Z,4.83
2018-06-21T11:05:18.053Z,3.10
2018-06-21T11:07:48.182Z,3.00
2018-06-21T11:10:18.774Z,3.67
2018-06-21T11:12:49.747Z,3.00
2018-06-21T11:15:20.585Z,2.83
2018-06-21T11:17:51.103Z,7.03
2018-06-21T11:20:22.148Z,3.33
2018-06-21T11:22:52.676Z,6.07
2018-06-21T11:25:25.564Z,4.17
2018-06-21T11:27:56.734Z,5.67
2018-06-21T11:30:30.614Z,3.13
2018-06-21T11:33:00.625Z,5.33
2018-06-21T11:35:30.539Z,3.30
2018-06-21T11:38:00.452Z,4.67
2018-06-21T11:40:30.987Z,3.23
2018-06-21T11:43:01.212Z,4.53
2018-06-21T11:45:31.021Z,2.97
2018-06-21T11:48:01.031Z,7.97
2018-06-21T11:50:30.949Z,3.67
2018-06-21T11:53:00.556Z,7.20
2018-06-21T11:55:30.469Z,6.73
2018-06-21T11:58:00.581Z,4.00
2018-06-21T12:00:30.605Z,2.83
2018-06-21T12:03:00.209Z,5.43
2018-06-21T12:05:30.222Z,4.73
2018-06-21T12:08:00.242Z,7.43
2018-06-21T12:10:30.566Z,4.33
2018-06-21T12:13:00.481Z,2.77
2018-06-21T12:15:30.605Z,4.17
2018-06-21T12:18:00.613Z,6.60
2018-06-21T12:20:30.220Z,5.63
2018-06-21T12:23:00.238Z,4.60
2018-06-21T12:25:29.950Z,4.40
2018-06-21T12:28:00.478Z,2.70
2018-06-21T12:30:30.182Z,6.67
2018-06-21T12:32:59.917Z,5.50
2018-06-21T12:35:29.709Z,3.00
2018-06-21T12:38:00.085Z,2.90
2018-06-21T12:40:29.951Z,3.40
2018-06-21T12:42:59.851Z,2.93
2018-06-21T12:45:29.779Z,3.13
2018-06-21T12:47:59.894Z,2.97
2018-06-21T12:50:29.904Z,9.33
2018-06-21T12:53:00.350Z,2.10
2018-06-21T12:55:31.579Z,2.53
2018-06-21T12:58:01.220Z,5.83
2018-06-21T13:00:34.477Z,4.53
2018-06-21T13:03:04.088Z,5.20
2018-06-21T13:05:34.208Z,3.30
2018-06-21T13:08:04.425Z,3.70
2018-06-21T13:10:38.947Z,2.57
2018-06-21T13:13:12.960Z,4.27
2018-06-21T13:15:43.074Z,6.40
2018-06-21T13:18:13.297Z,4.67
2018-06-21T13:20:43.511Z,3.03
2018-06-21T13:23:13.533Z,2.60
2018-06-21T13:25:43.549Z,2.70
2018-06-21T13:28:13.567Z,3.50
2018-06-21T13:30:43.483Z,4.00
2018-06-21T13:33:13.291Z,3.03
2018-06-21T13:35:46.769Z,3.67
2018-06-21T13:38:16.400Z,4.60
2018-06-21T13:40:46.215Z,9.00
2018-06-21T13:43:16.233Z,6.10
2018-06-21T13:45:46.038Z,3.80
2018-06-21T13:48:16.056Z,4.33
2018-06-21T13:50:46.705Z,2.53
2018-06-21T13:53:16.611Z,3.83
2018-06-21T13:55:46.618Z,5.73
2018-06-21T13:58:17.858Z,2.57
2018-06-21T14:00:48.696Z,4.90
2018-06-21T14:03:19.130Z,2.20
2018-06-21T14:05:49.849Z,3.57
2018-06-21T14:08:20.210Z,2.47
2018-06-21T14:10:51.124Z,2.30
2018-06-21T14:13:22.059Z,3.83
2018-06-21T14:15:52.184Z,9.47
2018-06-21T14:18:21.682Z,19.50
2018-06-21T14:20:51.632Z,18.73
2018-06-21T14:23:21.718Z,20.30
2018-06-21T14:25:51.918Z,13.90
2018-06-21T14:28:22.158Z,10.63
2018-06-21T14:30:52.280Z,13.13
2018-06-21T14:33:22.598Z,6.73
2018-06-21T14:35:52.617Z,9.10
2018-06-21T14:38:22.634Z,8.90
2018-06-21T14:40:52.043Z,5.00
2018-06-21T14:43:22.054Z,5.43
2018-06-21T14:45:51.965Z,6.13
2018-06-21T14:48:22.143Z,11.23
2018-06-21T14:50:52.509Z,6.20
2018-06-21T14:53:22.745Z,8.97
2018-06-21T14:55:52.445Z,5.37
2018-06-21T14:58:22.513Z,5.80
2018-06-21T15:00:52.997Z,5.90
2018-06-21T15:03:23.414Z,7.47
2018-06-21T15:05:53.830Z,5.83
2018-06-21T15:08:24.175Z,5.60
2018-06-21T15:10:53.669Z,5.07
2018-06-21T15:13:23.920Z,6.13
2018-06-21T15:15:54.009Z,7.07
2018-06-21T15:18:24.238Z,12.63
2018-06-21T15:20:54.042Z,4.50
2018-06-21T15:23:23.747Z,6.67
2018-06-21T15:25:53.666Z,6.13
2018-06-21T15:28:23.273Z,7.17
2018-06-21T15:30:52.781Z,5.03
2018-06-21T15:33:23.099Z,5.80
2018-06-21T15:35:54.146Z,5.87
2018-06-21T15:38:24.061Z,5.93
2018-06-21T15:40:54.186Z,8.10
2018-06-21T15:43:23.778Z,7.60
2018-06-21T15:45:54.006Z,13.70
2018-06-21T15:48:23.618Z,17.97
2018-06-21T15:50:54.241Z,14.07
2018-06-21T15:53:24.567Z,17.30
2018-06-21T15:55:54.695Z,21.23
2018-06-21T15:58:25.734Z,13.23
2018-06-21T16:00:55.739Z,15.77
2018-06-21T16:03:25.455Z,17.03
2018-06-21T16:05:55.570Z,15.93
2018-06-21T16:08:25.585Z,18.83
2018-06-21T16:10:55.496Z,19.30
2018-06-21T16:13:25.621Z,15.37
2018-06-21T16:15:55.553Z,14.63
2018-06-21T16:18:28.006Z,14.90
2018-06-21T16:20:58.034Z,10.20
2018-06-21T16:23:27.939Z,11.13
2018-06-21T16:25:57.841Z,8.27
2018-06-21T16:28:27.664Z,7.03
2018-06-21T16:30:57.681Z,11.73
2018-06-21T16:33:27.693Z,11.90
2018-06-21T16:35:57.522Z,10.57
2018-06-21T16:38:27.526Z,8.17
2018-06-21T16:40:57.515Z,9.13
2018-06-21T16:43:27.464Z,7.83
2018-06-21T16:45:57.166Z,6.37
2018-06-21T16:48:26.984Z,11.33
2018-06-21T16:50:57.122Z,7.13
2018-06-21T16:53:27.734Z,4.17
2018-06-21T16:55:58.254Z,7.47
2018-06-21T16:58:28.581Z,5.33
2018-06-21T17:00:58.705Z,5.80
2018-06-21T17:03:28.612Z,4.03
2018-06-21T17:05:58.623Z,3.97
2018-06-21T17:08:28.846Z,7.53
2018-06-21T17:10:58.869Z,4.50
2018-06-21T17:13:29.396Z,4.60
2018-06-21T17:15:59.615Z,8.07
2018-06-21T17:18:29.532Z,2.97
2018-06-21T17:20:59.239Z,6.03
2018-06-21T17:23:28.949Z,3.13
2018-06-21T17:25:59.068Z,4.37
2018-06-21T17:28:29.088Z,5.90
2018-06-21T17:30:59.016Z,4.50
2018-06-21T17:33:28.913Z,4.47
2018-06-21T17:36:00.159Z,2.53
2018-06-21T17:38:29.668Z,3.20
2018-06-21T17:40:59.369Z,6.47
2018-06-21T17:43:28.871Z,5.77
2018-06-21T17:45:58.583Z,4.93
2018-06-21T17:48:29.416Z,3.40
2018-06-21T17:50:59.234Z,2.23
2018-06-21T17:53:28.638Z,5.10
2018-06-21T17:55:58.240Z,2.73
2018-06-21T17:58:27.749Z,1.20
2018-06-21T18:00:57.255Z,2.90
2018-06-21T18:03:26.764Z,4.87
2018-06-21T18:05:56.665Z,3.03
2018-06-21T18:08:25.963Z,7.00
2018-06-21T18:10:55.774Z,6.17
2018-06-21T18:13:25.283Z,2.00
2018-06-21T18:15:55.107Z,4.50
2018-06-21T18:18:24.399Z,4.00
2018-06-21T18:20:54.104Z,2.83
2018-06-21T18:23:23.715Z,5.57
2018-06-21T18:25:53.424Z,3.23
2018-06-21T18:28:24.683Z,6.70
2018-06-21T18:30:55.005Z,3.93
2018-06-21T18:33:25.218Z,1.83
2018-06-21T18:35:55.743Z,4.60
2018-06-21T18:38:25.551Z,3.27
2018-06-21T18:40:54.961Z,3.30
2018-06-21T18:43:24.778Z,3.60
2018-06-21T18:45:54.679Z,3.97
2018-06-21T18:48:24.186Z,2.47
2018-06-21T18:50:53.590Z,2.33
2018-06-21T18:53:23.517Z,2.03
2018-06-21T18:55:53.219Z,1.17
2018-06-21T18:58:22.946Z,3.33
2018-06-21T19:00:52.446Z,5.33
2018-06-21T19:03:22.548Z,2.10
2018-06-21T19:05:51.948Z,2.63
2018-06-21T19:08:29.138Z,3.13
2018-06-21T19:11:03.147Z,1.17
2018-06-21T19:13:32.748Z,2.03
2018-06-21T19:16:02.455Z,0.83
2018-06-21T19:18:32.067Z,3.17
2018-06-21T19:21:01.567Z,2.50
2018-06-21T19:23:30.773Z,2.20
2018-06-21T19:26:00.164Z,4.17
2018-06-21T19:28:30.694Z,2.03
2018-06-21T19:31:00.609Z,2.17
2018-06-21T19:33:30.123Z,3.30
2018-06-21T19:35:59.929Z,2.53
2018-06-21T19:38:29.325Z,4.13
2018-06-21T19:40:58.932Z,3.40
2018-06-21T19:43:28.239Z,2.73
2018-06-21T19:45:57.430Z,2.13
2018-06-21T19:48:28.381Z,1.60
2018-06-21T19:50:57.772Z,3.10
2018-06-21T19:53:28.015Z,2.43
2018-06-21T19:55:57.596Z,0.93
2018-06-21T19:58:26.903Z,1.97
2018-06-21T20:00:56.713Z,1.17
2018-06-21T20:03:26.012Z,2.17
2018-06-21T20:05:55.629Z,2.67
2018-06-21T20:08:25.325Z,1.80
2018-06-21T20:10:58.622Z,2.90
2018-06-21T20:13:28.551Z,2.13
2018-06-21T20:15:57.946Z,2.83
2018-06-21T20:18:27.488Z,3.33
2018-06-21T20:20:57.368Z,2.17
2018-06-21T20:23:26.778Z,3.33
2018-06-21T20:25:56.263Z,2.43
2018-06-21T20:28:25.785Z,3.20
2018-06-21T20:30:55.782Z,2.87
2018-06-21T20:33:26.009Z,2.40
2018-06-21T20:35:55.204Z,2.63
2018-06-21T20:38:24.712Z,3.63
2018-06-21T20:40:55.032Z,1.73
2018-06-21T20:43:24.239Z,1.93
2018-06-21T20:45:54.155Z,1.30
2018-06-21T20:48:23.778Z,2.00
2018-06-21T20:50:53.356Z,4.50
2018-06-21T20:53:22.857Z,2.70
2018-06-21T20:55:52.668Z,3.30
2018-06-21T20:58:22.289Z,5.33
2018-06-21T21:00:51.683Z,1.83
2018-06-21T21:03:21.085Z,2.00
2018-06-21T21:05:51.198Z,1.73
2018-06-21T21:08:20.503Z,2.63
2018-06-21T21:10:49.927Z,3.50
2018-06-21T21:13:19.715Z,2.63
2018-06-21T21:15:49.021Z,2.07
2018-06-21T21:18:18.829Z,5.50
2018-06-21T21:20:48.226Z,2.67
2018-06-21T21:23:17.529Z,2.73
2018-06-21T21:25:47.239Z,2.00
2018-06-21T21:28:16.739Z,2.00
2018-06-21T21:30:46.042Z,2.63
2018-06-21T21:33:15.764Z,2.60
2018-06-21T21:35:45.364Z,3.87
2018-06-21T21:38:14.659Z,1.50
2018-06-21T21:40:44.264Z,1.77
2018-06-21T21:43:13.664Z,2.20
2018-06-21T21:45:42.860Z,3.17
2018-06-21T21:48:12.160Z,2.10
2018-06-21T21:50:41.459Z,3.17
2018-06-21T21:53:10.763Z,4.37
2018-06-21T21:55:40.165Z,2.87
2018-06-21T21:58:09.569Z,2.13
2018-06-21T22:00:43.269Z,3.03
2018-06-21T22:03:12.878Z,2.67
2018-06-21T22:05:42.288Z,1.40
2018-06-21T22:08:11.793Z,2.83
2018-06-21T22:10:42.736Z,3.60
2018-06-21T22:13:13.151Z,2.70
2018-06-21T22:15:42.758Z,2.40
2018-06-21T22:18:12.052Z,3.27
2018-06-21T22:20:41.775Z,1.87
2018-06-21T22:23:11.167Z,1.87
2018-06-21T22:25:40.879Z,2.70
2018-06-21T22:28:10.276Z,2.03
2018-06-21T22:30:39.595Z,3.07
2018-06-21T22:33:08.980Z,3.00
2018-06-21T22:35:38.586Z,2.50
2018-06-21T22:38:07.885Z,3.30
2018-06-21T22:40:37.186Z,2.10
2018-06-21T22:43:06.590Z,3.57
2018-06-21T22:45:35.782Z,4.33
2018-06-21T22:48:05.290Z,2.90
2018-06-21T22:50:34.820Z,3.27
2018-06-21T22:53:04.300Z,4.80
2018-06-21T22:55:33.391Z,1.87
2018-06-21T22:58:02.908Z,3.30
2018-06-21T23:00:32.402Z,3.47
2018-06-21T23:03:01.909Z,3.73
2018-06-21T23:05:31.479Z,2.83
2018-06-21T23:08:00.811Z,1.67
2018-06-21T23:10:30.216Z,2.60
2018-06-21T23:12:59.513Z,2.37
2018-06-21T23:15:29.032Z,2.70
2018-06-21T23:17:58.625Z,1.97
2018-06-21T23:20:28.130Z,2.80
2018-06-21T23:22:58.062Z,3.47
2018-06-21T23:25:27.549Z,2.67
2018-06-21T23:27:56.745Z,1.70
2018-06-21T23:30:26.046Z,2.47
2018-06-21T23:32:55.244Z,3.67
2018-06-21T23:35:24.647Z,3.23
2018-06-21T23:37:54.048Z,3.43
2018-06-21T23:40:23.455Z,4.83
2018-06-21T23:42:52.771Z,5.73
2018-06-21T23:45:22.259Z,1.80
2018-06-21T23:47:51.552Z,4.77
2018-06-21T23:50:20.749Z,4.63
2018-06-21T23:52:50.053Z,3.60
2018-06-21T23:55:19.457Z,2.57
2018-06-21T23:57:49.074Z,2.03
